Quick Links (Output Below):   Max & Min Temps   /   Climate Reports   /   Zone Forecasts
River Forecasts   /   Forestry Forecasts   /   Aviation Forecasts   /   Radars   /   Features

Terminal Aerodrome Forecast (Harrison)

Pick a Site:
Arkadelphia | El Dorado | Fayetteville | Fort Smith | Harrison | Highfill | Hot Springs | Jonesboro
Little Rock | Monticello | Mountain Home | Pine Bluff | Texarkana
 Forecast 

KHRO 300542Z 3006/3106 15005KT P6SM SCT120
     FM301400 19005KT P6SM VCSH SCT030 BKN120
     FM301800 19006KT P6SM SCT120=


 Latest METARs (Observations) 
How to Decode METARs
06Z KHRO 300553Z AUTO 12004KT 10SM CLR 21/20 A2999 RMK AO2 SLP143
         60000 T02110200 10233 20206 403060200 50007
         
05Z KHRO 300453Z AUTO 15005KT 10SM CLR 21/21 A3000 RMK AO2 SLP142
         T02110206
         
04Z KHRO 300353Z AUTO 14007KT 10SM BKN065 22/21 A2999 RMK AO2 SLP139
         T02170206
         
03Z KHRO 300253Z AUTO 13008KT 10SM BKN080 22/21 A2997 RMK AO2 SLP135
         60000 T02220211 51014
         
02Z KHRO 300153Z AUTO 13006KT 10SM OVC100 22/21 A2997 RMK AO2 SLP133
         T02220211
         
01Z KHRO 300053Z AUTO 17005KT 10SM OVC100 23/20 A2994 RMK AO2 RAB36E50
         SLP126 P0000 T02330200
         
00Z KHRO 292353Z AUTO 20005KT 10SM OVC110 23/21 A2993 RMK AO2 SLP123
         60002 T02280206 10289 20222 55001
         
***** Today's Observations (Above) *****


23Z KHRO 292253Z AUTO 18005KT 10SM OVC110 23/21 A2993 RMK AO2 SLP121
         T02330211
         
22Z KHRO 292153Z AUTO 18008KT 10SM FEW055 BKN095 OVC120 23/22 A2993
         RMK AO2 RAE46 SLP124 P0001 T02280217
         
21Z KHRO 292053Z AUTO 19007KT 10SM -RA FEW075 SCT100 BKN110 22/20
         A2993 RMK AO2 RAB38 SLP124 P0000 60001 T02220200 58002
         
***** Yesterday's Observations (Above) *****


Back to Main Page
http://www.srh.noaa.gov/lzk/qfcst.php

USA.gov is the U.S. government's official web portal to all federal, state and local government web resources and services.